Terminal Aerodrome Forecast
Issued by NWS

Current Version | Previous Version | Graphics & Text | Print | Product List | Glossary On
Versions: 1 2 3 4 5 6 7 8 9 10 11 12 13 14 15 16 17 18 19
411
FTUS41 KILN 221915 AAA
TAFLCK
TAF AMD
KLCK 221915Z 2219/2318 20005KT P6SM SCT040 BKN080
      TEMPO 2219/2221 2SM TSRA BKN025CB
     FM222300 24009KT P6SM VCSH OVC040
      TEMPO 2305/2309 4SM -TSRA SCT025CB BKN060
     FM231000 23006KT P6SM SCT030 BKN100
     FM231500 28010KT P6SM FEW040 SCT100=

USA.gov is the U.S. government's official web portal to all federal, state and local government web resources and services.